createdAt,value
2018-04-08T00:01:05.507Z,81.59
2018-04-08T00:02:15.547Z,81.68
2018-04-08T00:03:25.287Z,81.4
2018-04-08T00:04:35.041Z,81.97
2018-04-08T00:05:44.793Z,81.68
2018-04-08T00:06:54.796Z,81.21
2018-04-08T00:08:04.819Z,81.3
2018-04-08T00:09:14.580Z,81.21
2018-04-08T00:10:24.341Z,81.12
2018-04-08T00:11:34.348Z,81.21
2018-04-08T00:12:44.354Z,81.12
2018-04-08T00:13:54.383Z,81.3
2018-04-08T00:15:04.385Z,81.82
2018-04-08T00:16:14.471Z,82.3
2018-04-08T00:17:24.495Z,81.88
2018-04-08T00:18:34.307Z,82.2
2018-04-08T00:19:44.507Z,82.17
2018-04-08T00:20:54.308Z,82.54
2018-04-08T00:22:03.811Z,81.97
2018-04-08T00:23:13.649Z,81.73
2018-04-08T00:24:23.696Z,82.01
2018-04-08T00:25:33.717Z,81.88
2018-04-08T00:26:43.469Z,81.97
2018-04-08T00:27:53.727Z,81.88
2018-04-08T00:29:03.764Z,81.88
2018-04-08T00:30:13.631Z,82.07
2018-04-08T00:31:23.406Z,81.88
2018-04-08T00:32:33.405Z,81.88
2018-04-08T00:33:43.424Z,81.78
2018-04-08T00:34:52.942Z,81.68
2018-04-08T00:36:02.960Z,81.68
2018-04-08T00:37:12.717Z,81.68
2018-04-08T00:38:22.465Z,81.78
2018-04-08T00:39:32.233Z,81.97
2018-04-08T00:40:42.255Z,81.78
2018-04-08T00:41:52.258Z,81.59
2018-04-08T00:43:02.269Z,81.68
2018-04-08T00:44:12.532Z,81.88
2018-04-08T00:45:22.283Z,81.88
2018-04-08T00:46:32.045Z,81.78
2018-04-08T00:47:42.059Z,81.88
2018-04-08T00:48:51.826Z,81.88
2018-04-08T00:50:01.589Z,81.82
2018-04-08T00:51:11.365Z,81.78
2018-04-08T00:52:21.372Z,81.68
2018-04-08T00:53:31.374Z,82.07
2018-04-08T00:54:41.123Z,81.68
2018-04-08T00:55:51.139Z,81.88
2018-04-08T00:57:00.980Z,81.68
2018-04-08T00:58:10.991Z,82.11
2018-04-08T00:59:21.009Z,82.3
2018-04-08T01:00:30.512Z,82.11
2018-04-08T01:01:40.219Z,81.63
2018-04-08T01:02:50.281Z,81.73
2018-04-08T01:04:01.029Z,81.97
2018-04-08T01:05:10.769Z,82.2
2018-04-08T01:06:20.777Z,81.54
2018-04-08T01:07:30.549Z,81.92
2018-04-08T01:08:40.561Z,81.92
2018-04-08T01:09:50.563Z,81.63
2018-04-08T01:11:00.325Z,81.82
2018-04-08T01:12:10.084Z,81.82
2018-04-08T01:13:20.120Z,81.73
2018-04-08T01:14:30.194Z,81.73
2018-04-08T01:15:39.954Z,81.63
2018-04-08T01:16:49.712Z,81.73
2018-04-08T01:17:59.229Z,81.73
2018-04-08T01:19:09.224Z,81.73
2018-04-08T01:20:19.020Z,81.73
2018-04-08T01:21:28.776Z,81.92
2018-04-08T01:22:38.517Z,81.82
2018-04-08T01:23:48.019Z,81.73
2018-04-08T01:24:57.778Z,81.73
2018-04-08T01:26:07.324Z,81.92
2018-04-08T01:27:17.360Z,82.01
2018-04-08T01:28:27.111Z,82.01
2018-04-08T01:29:37.117Z,82.01
2018-04-08T01:30:47.121Z,82.11
2018-04-08T01:31:57.139Z,81.73
2018-04-08T01:33:06.640Z,82.2
2018-04-08T01:34:16.671Z,81.92
2018-04-08T01:35:26.754Z,81.73
2018-04-08T01:36:36.841Z,81.82
2018-04-08T01:37:46.635Z,81.73
2018-04-08T01:38:56.694Z,82.2
2018-04-08T01:40:06.501Z,82.2
2018-04-08T01:41:16.313Z,81.92
2018-04-08T01:42:26.121Z,82.3
2018-04-08T01:43:35.660Z,82.2
2018-04-08T01:44:45.789Z,82.3
2018-04-08T01:45:55.608Z,82.3
2018-04-08T01:47:05.420Z,82.07
2018-04-08T01:48:14.975Z,82.11
2018-04-08T01:49:24.792Z,82.49
2018-04-08T01:50:34.856Z,82.2
2018-04-08T01:51:44.442Z,82.01
2018-04-08T01:52:54.253Z,82.01
2018-04-08T01:54:04.320Z,82.11
2018-04-08T01:55:14.447Z,82.11
2018-04-08T01:56:24.522Z,82.11
2018-04-08T01:57:34.595Z,82.11
2018-04-08T01:58:44.674Z,82.2
2018-04-08T01:59:56.092Z,82.3
2018-04-08T02:01:07.891Z,82.11
2018-04-08T02:02:18.160Z,82.3
2018-04-08T02:03:28.229Z,82.11
2018-04-08T02:04:38.033Z,82.3
2018-04-08T02:05:48.088Z,82.11
2018-04-08T02:06:58.237Z,82.11
2018-04-08T02:08:08.317Z,82.11
2018-04-08T02:09:18.392Z,82.01
2018-04-08T02:10:28.486Z,82.01
2018-04-08T02:11:38.552Z,82.49
2018-04-08T02:12:48.368Z,82.11
2018-04-08T02:13:58.174Z,82.11
2018-04-08T02:15:08.249Z,82.3
2018-04-08T02:16:18.060Z,82.11
2018-04-08T02:17:27.865Z,82.11
2018-04-08T02:18:37.991Z,82.11
2018-04-08T02:19:47.274Z,82.11
2018-04-08T02:20:57.329Z,82.2
2018-04-08T02:22:07.149Z,82.3
2018-04-08T02:23:16.967Z,82.3
2018-04-08T02:24:26.844Z,82.4
2018-04-08T02:25:36.394Z,82.11
2018-04-08T02:26:45.970Z,82.2
2018-04-08T02:27:56.060Z,82.4
2018-04-08T02:29:05.867Z,82.4
2018-04-08T02:30:15.960Z,82.4
2018-04-08T02:31:25.778Z,82.3
2018-04-08T02:32:35.899Z,81.92
2018-04-08T02:33:45.712Z,82.15
2018-04-08T02:34:55.538Z,82.4
2018-04-08T02:36:05.345Z,82.4
2018-04-08T02:37:14.889Z,82.4
2018-04-08T02:38:24.964Z,82.53
2018-04-08T02:39:34.789Z,82.59
2018-04-08T02:40:44.896Z,82.4
2018-04-08T02:41:55.011Z,82.49
2018-04-08T02:43:05.090Z,82.68
2018-04-08T02:44:14.914Z,82.4
2018-04-08T02:45:24.983Z,82.43
2018-04-08T02:46:34.552Z,82.53
2018-04-08T02:47:44.708Z,82.59
2018-04-08T02:48:54.784Z,82.43
2018-04-08T02:50:04.595Z,82.34
2018-04-08T02:51:14.668Z,82.2
2018-04-08T02:52:24.734Z,82.11
2018-04-08T02:53:34.889Z,82.59
2018-04-08T02:54:44.705Z,82.68
2018-04-08T02:55:54.781Z,82.78
2018-04-08T02:57:04.594Z,82.68
2018-04-08T02:58:14.687Z,82.78
2018-04-08T02:59:24.836Z,82.59
2018-04-08T03:00:34.911Z,82.3
2018-04-08T03:01:44.711Z,82.11
2018-04-08T03:33:39.926Z,78.29
2018-04-08T03:34:49.724Z,78.77
2018-04-08T03:35:59.800Z,79.43
2018-04-08T03:37:09.870Z,80.66
2018-04-08T03:38:19.681Z,80.86
2018-04-08T03:39:29.810Z,81.81
2018-04-08T03:40:39.344Z,81.62
2018-04-08T03:41:49.418Z,81.9
2018-04-08T03:42:59.230Z,82.09
2018-04-08T03:44:09.037Z,82.23
2018-04-08T03:45:18.575Z,82.14
2018-04-08T03:46:28.393Z,82.14
2018-04-08T03:47:38.462Z,81.85
2018-04-08T03:48:48.550Z,82.18
2018-04-08T03:49:58.625Z,82.18
2018-04-08T03:51:07.908Z,82.18
2018-04-08T03:52:17.729Z,81.89
2018-04-08T03:53:27.527Z,82.46
2018-04-08T03:54:37.347Z,82.31
2018-04-08T03:55:47.159Z,82.69
2018-04-08T03:56:57.017Z,82.21
2018-04-08T03:58:06.965Z,82.21
2018-04-08T03:59:17.032Z,82.41
2018-04-08T04:00:26.318Z,82.31
2018-04-08T04:01:35.869Z,82.31
2018-04-08T04:02:46.004Z,82.5
2018-04-08T04:03:55.817Z,82.41
2018-04-08T04:05:05.879Z,82.21
2018-04-08T04:06:15.952Z,82.21
2018-04-08T04:07:25.770Z,82.6
2018-04-08T04:08:35.885Z,82.69
2018-04-08T04:09:45.949Z,82.69
2018-04-08T04:10:56.019Z,82.5
2018-04-08T04:12:06.108Z,82.21
2018-04-08T04:13:15.135Z,82.69
2018-04-08T04:14:24.683Z,82.5
2018-04-08T04:15:34.491Z,82.5
2018-04-08T04:16:44.075Z,82.6
2018-04-08T04:17:53.868Z,82.5
2018-04-08T04:19:03.159Z,82.21
2018-04-08T04:20:13.222Z,82.5
2018-04-08T04:21:23.032Z,82.21
2018-04-08T04:22:33.104Z,82.6
2018-04-08T04:23:43.174Z,82.41
2018-04-08T04:24:53.243Z,82.41
2018-04-08T04:26:03.054Z,82.41
2018-04-08T04:27:12.852Z,82.31
2018-04-08T04:28:22.644Z,82.21
2018-04-08T04:29:32.715Z,82.31
2018-04-08T04:30:42.517Z,82.31
2018-04-08T04:31:52.629Z,82.21
2018-04-08T04:33:02.455Z,82.21
2018-04-08T04:34:12.299Z,82.21
2018-04-08T04:35:22.115Z,82.12
2018-04-08T04:36:32.182Z,82.03
2018-04-08T04:37:42.008Z,82.03
2018-04-08T04:38:52.189Z,81.84
2018-04-08T04:40:01.719Z,82.03
2018-04-08T04:41:11.783Z,82.31
2018-04-08T04:42:21.581Z,81.84
2018-04-08T04:43:31.431Z,81.78
2018-04-08T04:44:41.237Z,81.88
2018-04-08T04:45:51.044Z,81.97
2018-04-08T04:47:01.095Z,81.59
2018-04-08T04:48:10.663Z,81.88
2018-04-08T04:49:20.784Z,81.88
2018-04-08T04:50:30.859Z,81.97
2018-04-08T04:51:40.669Z,81.88
2018-04-08T04:52:50.484Z,81.78
2018-04-08T04:54:00.287Z,81.88
2018-04-08T04:55:09.856Z,81.78
2018-04-08T04:56:19.916Z,81.78
2018-04-08T04:57:29.445Z,81.78
2018-04-08T04:58:38.984Z,81.59
2018-04-08T04:59:48.790Z,81.78
2018-04-08T05:00:58.069Z,81.88
2018-04-08T05:02:07.600Z,81.88
2018-04-08T05:03:16.873Z,81.78
2018-04-08T05:04:26.947Z,82.49
2018-04-08T05:05:37.014Z,81.68
2018-04-08T05:06:46.821Z,82.11
2018-04-08T05:07:56.893Z,81.92
2018-04-08T05:09:06.979Z,82.01
2018-04-08T05:10:17.052Z,81.82
2018-04-08T05:11:26.899Z,81.82
2018-04-08T05:12:36.965Z,82.3
2018-04-08T05:13:47.038Z,82.3
2018-04-08T05:14:56.916Z,82.2
2018-04-08T05:16:06.997Z,82.11
2018-04-08T05:17:16.807Z,82.01
2018-04-08T05:18:26.686Z,82.2
2018-04-08T05:19:36.507Z,82.01
2018-04-08T05:20:45.796Z,82.11
2018-04-08T05:21:55.605Z,81.44
2018-04-08T05:23:05.729Z,81.25
2018-04-08T05:24:15.657Z,81.2
2018-04-08T05:25:25.204Z,81.86
2018-04-08T05:26:35.000Z,81.38
2018-04-08T05:27:44.814Z,81.29
2018-04-08T05:28:54.631Z,81.38
2018-04-08T05:30:04.239Z,81.58
2018-04-08T05:31:14.032Z,81.48
2018-04-08T05:32:23.840Z,81.86
2018-04-08T05:33:33.917Z,81.67
2018-04-08T05:34:43.721Z,81.48
2018-04-08T05:35:53.570Z,81.48
2018-04-08T05:37:02.862Z,81.29
2018-04-08T05:38:12.931Z,81.52
2018-04-08T05:39:22.744Z,81.62
2018-04-08T05:40:32.289Z,81.43
2018-04-08T05:41:42.109Z,81.52
2018-04-08T05:42:52.188Z,81.33
2018-04-08T05:44:01.993Z,81.52
2018-04-08T05:45:11.550Z,81.52
2018-04-08T05:46:21.360Z,81.62
2018-04-08T05:47:31.436Z,81.24
2018-04-08T05:48:41.261Z,81.18
2018-04-08T05:49:50.811Z,81.56
2018-04-08T05:51:00.892Z,81.18
2018-04-08T05:52:10.695Z,80.99
2018-04-08T05:53:20.312Z,80.99
2018-04-08T05:54:29.850Z,81.47
2018-04-08T05:55:39.675Z,81.56
2018-04-08T05:56:49.734Z,81.7
2018-04-08T05:57:59.854Z,81.32
2018-04-08T05:59:10.121Z,81.7
2018-04-08T06:00:19.925Z,81.41
2018-04-08T06:01:29.205Z,81.32
2018-04-08T06:02:39.001Z,81.32
2018-04-08T06:03:48.570Z,81.32
2018-04-08T06:04:58.803Z,81.13
2018-04-08T06:06:08.608Z,81.32
2018-04-08T06:07:18.173Z,81.26
2018-04-08T06:08:27.716Z,81.07
2018-04-08T06:09:37.531Z,80.98
2018-04-08T06:10:47.645Z,80.88
2018-04-08T06:11:57.718Z,80.88
2018-04-08T06:13:07.541Z,80.5
2018-04-08T06:14:17.353Z,80.79
2018-04-08T06:15:27.444Z,80.69
2018-04-08T06:16:37.562Z,80.5
2018-04-08T06:17:47.368Z,80.88
2018-04-08T06:18:56.917Z,81.36
2018-04-08T06:20:06.728Z,81.45
2018-04-08T06:21:16.542Z,81.4
2018-04-08T06:22:26.348Z,80.82
2018-04-08T06:23:36.429Z,81.21
2018-04-08T06:24:45.975Z,80.73
2018-04-08T06:25:55.846Z,80.63
2018-04-08T06:27:05.419Z,80.63
2018-04-08T06:28:14.986Z,80.54
2018-04-08T06:29:25.069Z,80.82
2018-04-08T06:30:34.915Z,80.82
2018-04-08T06:31:45.005Z,80.82
2018-04-08T06:32:55.142Z,80.58
2018-04-08T06:34:05.204Z,80.92
2018-04-08T06:35:15.297Z,80.87
2018-04-08T06:36:25.358Z,80.54
2018-04-08T06:37:35.424Z,80.96
2018-04-08T06:38:45.245Z,80.87
2018-04-08T06:39:54.802Z,80.48
2018-04-08T06:41:04.638Z,80.19
2018-04-08T06:42:14.457Z,80.33
2018-04-08T06:43:24.526Z,79.66
2018-04-08T06:44:34.156Z,79.57
2018-04-08T06:45:44.241Z,79.66
2018-04-08T06:46:54.303Z,79.6
2018-04-08T06:48:04.128Z,79.7
2018-04-08T06:49:13.954Z,79.7
2018-04-08T06:50:23.783Z,79.51
2018-04-08T06:51:33.651Z,79.6
2018-04-08T06:52:43.456Z,79.83
2018-04-08T06:53:53.538Z,79.64
2018-04-08T06:55:03.099Z,79.55
2018-04-08T06:56:12.657Z,79.45
2018-04-08T06:57:22.722Z,79.74
2018-04-08T06:58:32.795Z,80.03
2018-04-08T06:59:42.620Z,79.68
2018-04-08T07:00:52.703Z,79.78
2018-04-08T07:02:02.802Z,79.49
2018-04-08T07:03:12.945Z,79.24
2018-04-08T07:04:22.763Z,79.05
2018-04-08T07:05:32.841Z,79.34
2018-04-08T07:06:42.662Z,79.82
2018-04-08T07:07:51.955Z,79.82
2018-04-08T07:09:01.775Z,79.63
2018-04-08T07:10:11.588Z,79.44
2018-04-08T07:11:21.650Z,79.44
2018-04-08T07:12:31.194Z,79.76
2018-04-08T07:13:41.307Z,79.86
2018-04-08T07:14:51.392Z,79.86
2018-04-08T07:16:01.497Z,79.82
2018-04-08T07:17:11.589Z,79.86
2018-04-08T07:18:21.849Z,79.47
2018-04-08T07:19:32.052Z,79.47
2018-04-08T07:20:42.129Z,79.42
2018-04-08T07:21:52.218Z,79.61
2018-04-08T07:23:02.008Z,79.71
2018-04-08T07:24:11.547Z,79.96
2018-04-08T07:25:21.095Z,79.57
2018-04-08T07:26:30.961Z,80.24
2018-04-08T07:27:40.514Z,80.43
2018-04-08T07:28:50.590Z,80.49
2018-04-08T07:30:00.159Z,80.3
2018-04-08T07:31:10.004Z,80.24
2018-04-08T07:32:19.888Z,79.86
2018-04-08T07:33:29.963Z,79.76
2018-04-08T07:34:40.070Z,80.43
2018-04-08T07:35:49.638Z,80.43
2018-04-08T07:36:59.191Z,80.34
2018-04-08T07:38:09.358Z,80.43
2018-04-08T07:39:19.441Z,80.73
2018-04-08T07:40:29.539Z,80.24
2018-04-08T07:41:39.356Z,80.34
2018-04-08T07:42:49.463Z,79.86
2018-04-08T07:43:59.005Z,79.9
2018-04-08T07:45:09.096Z,79.9
2018-04-08T07:46:19.165Z,79.52
2018-04-08T07:47:29.313Z,79.57
2018-04-08T07:48:39.150Z,79.9
2018-04-08T07:49:49.279Z,80.24
2018-04-08T07:50:59.459Z,80.24
2018-04-08T07:52:09.551Z,80.34
2018-04-08T07:53:19.358Z,80.34
2018-04-08T07:54:29.484Z,79.86
2018-04-08T07:55:39.567Z,80.28
2018-04-08T07:56:49.398Z,80.28
2018-04-08T07:57:59.509Z,80.28
2018-04-08T07:59:09.402Z,80.09
2018-04-08T08:00:19.597Z,80.47
2018-04-08T08:01:29.695Z,80.38
2018-04-08T08:02:39.771Z,80.38
2018-04-08T08:03:49.867Z,80.47
2018-04-08T08:04:59.696Z,80.38
2018-04-08T08:06:09.537Z,80.57
2018-04-08T08:07:19.362Z,80.28
2018-04-08T08:08:29.438Z,80.28
2018-04-08T08:09:39.518Z,80.28
2018-04-08T08:10:49.636Z,80.38
2018-04-08T08:11:59.729Z,80.66
2018-04-08T08:13:09.810Z,80.66
2018-04-08T08:14:19.899Z,80.76
2018-04-08T08:15:29.773Z,80.76
2018-04-08T08:16:39.862Z,80.28
2018-04-08T08:17:49.955Z,80.47
2018-04-08T08:19:00.085Z,80.57
2018-04-08T08:20:10.159Z,80.38
2018-04-08T08:21:20.241Z,80.28
2018-04-08T08:22:30.302Z,80.09
2018-04-08T08:23:40.539Z,79.71
2018-04-08T08:24:50.708Z,79.8
2018-04-08T08:26:00.810Z,79.9
2018-04-08T08:27:10.367Z,79.71
2018-04-08T08:28:20.478Z,79.9
2018-04-08T08:29:30.567Z,80.13
2018-04-08T08:30:40.453Z,79.65
2018-04-08T08:31:50.581Z,79.65
2018-04-08T08:33:00.473Z,79.84
2018-04-08T08:34:10.297Z,79.75
2018-04-08T08:35:20.395Z,79.9
2018-04-08T08:36:30.525Z,80.28
2018-04-08T08:37:40.094Z,80.38
2018-04-08T08:38:49.925Z,80.47
2018-04-08T08:40:00.004Z,80.47
2018-04-08T08:41:10.125Z,80.51
2018-04-08T08:42:19.945Z,80.32
2018-04-08T08:43:30.085Z,80.42
2018-04-08T08:44:39.983Z,80.51
2018-04-08T08:45:50.575Z,80.38
2018-04-08T08:47:00.445Z,80.57
2018-04-08T08:48:10.609Z,80.38
2018-04-08T08:49:20.751Z,80.09
2018-04-08T08:50:30.858Z,80.09
2018-04-08T08:51:40.705Z,80.09
2018-04-08T08:52:50.824Z,80.09
2018-04-08T08:54:00.724Z,80.09
2018-04-08T08:55:10.823Z,80.57
2018-04-08T08:56:20.390Z,80.51
2018-04-08T08:57:30.109Z,80.42
2018-04-08T08:58:39.978Z,80.22
2018-04-08T08:59:50.098Z,80.22
2018-04-08T09:01:00.209Z,80.42
2018-04-08T09:02:10.041Z,80.42
2018-04-08T09:03:20.129Z,80.36
2018-04-08T09:04:29.943Z,80.32
2018-04-08T09:05:40.067Z,80.46
2018-04-08T09:06:49.929Z,80.27
2018-04-08T09:08:00.219Z,80.27
2018-04-08T09:09:10.328Z,80.65
2018-04-08T09:10:20.441Z,80.36
2018-04-08T09:11:30.325Z,80.36
2018-04-08T09:12:40.162Z,80.46
2018-04-08T09:13:50.239Z,80.55
2018-04-08T09:15:00.056Z,80.75
2018-04-08T09:16:09.877Z,80.55
2018-04-08T09:17:19.981Z,80.46
2018-04-08T09:18:30.194Z,80.65
2018-04-08T09:19:40.038Z,80.46
2018-04-08T09:20:50.149Z,80.55
2018-04-08T09:22:00.260Z,80.46
2018-04-08T09:23:09.834Z,80.36
2018-04-08T09:24:19.692Z,79.88
2018-04-08T09:25:29.814Z,80.5
2018-04-08T09:26:39.654Z,80.27
2018-04-08T09:27:49.895Z,80.36
2018-04-08T09:28:59.476Z,80.46
2018-04-08T09:30:09.643Z,79.82
2018-04-08T09:31:19.728Z,80.21
2018-04-08T09:32:29.851Z,79.73
2018-04-08T09:33:39.696Z,80.11
2018-04-08T09:34:49.831Z,79.92
2018-04-08T09:35:59.953Z,79.73
2018-04-08T09:37:10.077Z,79.77
2018-04-08T09:38:19.921Z,80.06
2018-04-08T09:39:29.766Z,79.86
2018-04-08T09:40:39.857Z,79.77
2018-04-08T09:41:49.719Z,79.96
2018-04-08T09:42:59.851Z,79.67
2018-04-08T09:44:09.968Z,79.77
2018-04-08T09:45:19.838Z,80.06
2018-04-08T09:46:29.969Z,80.15
2018-04-08T09:47:39.546Z,79.86
2018-04-08T09:48:49.386Z,80.25
2018-04-08T09:49:59.484Z,80.06
2018-04-08T09:51:09.594Z,80.15
2018-04-08T09:52:19.169Z,79.96
2018-04-08T09:53:29.026Z,80
2018-04-08T09:54:39.094Z,80.1
2018-04-08T09:55:48.934Z,80.1
2018-04-08T09:56:58.922Z,79.81
2018-04-08T09:58:09.394Z,80.1
2018-04-08T09:59:18.998Z,80.19
2018-04-08T10:00:28.976Z,80.29
2018-04-08T10:01:38.577Z,80
2018-04-08T10:02:48.522Z,79.94
2018-04-08T10:03:58.767Z,80.1
2018-04-08T10:05:08.789Z,80.81
2018-04-08T10:06:19.129Z,80.52
2018-04-08T10:07:29.138Z,80.62
2018-04-08T10:08:39.312Z,80.04
2018-04-08T10:09:49.607Z,80.14
2018-04-08T10:10:59.766Z,80.43
2018-04-08T10:12:10.063Z,80.23
2018-04-08T10:13:20.237Z,80.37
2018-04-08T10:14:29.641Z,80.62
2018-04-08T10:15:39.601Z,80.62
2018-04-08T10:16:50.047Z,80.52
2018-04-08T10:18:01.019Z,80.62
2018-04-08T10:19:12.774Z,80.62
2018-04-08T10:20:23.663Z,80.52
2018-04-08T10:21:35.108Z,80.62
2018-04-08T10:22:46.252Z,80.71
2018-04-08T10:23:57.626Z,80.62
2018-04-08T10:25:08.502Z,80.94
2018-04-08T10:26:19.809Z,80.37
2018-04-08T10:27:31.148Z,80.18
2018-04-08T10:28:42.080Z,80.18
2018-04-08T10:29:52.925Z,79.79
2018-04-08T10:31:03.569Z,80.18
2018-04-08T10:32:13.729Z,79.98
2018-04-08T10:33:24.918Z,79.98
2018-04-08T10:34:35.464Z,80.41
2018-04-08T10:35:45.605Z,80.22
2018-04-08T10:36:55.442Z,79.93
2018-04-08T10:38:05.556Z,80.22
2018-04-08T10:39:15.451Z,80.31
2018-04-08T10:40:25.295Z,80.69
2018-04-08T10:41:35.461Z,80.79
2018-04-08T10:42:45.056Z,80.79
2018-04-08T10:46:35.380Z,80.6
2018-04-08T10:47:45.518Z,80.79
2018-04-08T10:48:55.661Z,80.69
2018-04-08T10:50:05.535Z,80.6
2018-04-08T10:51:15.660Z,80.6
2018-04-08T10:52:25.756Z,80.6
2018-04-08T10:53:35.867Z,80.89
2018-04-08T10:54:45.995Z,80.6
2018-04-08T10:55:56.104Z,80.06
2018-04-08T10:57:06.210Z,80.6
2018-04-08T10:58:16.356Z,80.69
2018-04-08T10:59:26.505Z,80.6
2018-04-08T11:00:36.597Z,80.51
2018-04-08T11:01:46.722Z,80.64
2018-04-08T11:02:56.817Z,80.64
2018-04-08T11:04:07.214Z,80.06
2018-04-08T11:05:17.315Z,80.35
2018-04-08T11:06:27.424Z,80.06
2018-04-08T11:07:37.246Z,79.87
2018-04-08T11:08:47.362Z,80.2
2018-04-08T11:09:57.495Z,80.1
2018-04-08T11:11:07.352Z,80
2018-04-08T11:12:17.442Z,80.1
2018-04-08T11:13:27.553Z,80.3
2018-04-08T11:14:37.657Z,80.1
2018-04-08T11:15:47.803Z,80.39
2018-04-08T11:16:57.980Z,80.49
2018-04-08T11:18:08.346Z,80.49
2018-04-08T11:19:18.167Z,80.49
2018-04-08T11:20:28.280Z,80.49
2018-04-08T11:21:38.378Z,80.1
2018-04-08T11:22:48.485Z,80.05
2018-04-08T11:23:58.593Z,80.05
2018-04-08T11:25:08.448Z,80.05
2018-04-08T11:26:18.275Z,80.24
2018-04-08T11:27:28.407Z,80.43
2018-04-08T11:28:38.529Z,80.43
2018-04-08T11:29:48.751Z,80.05
2018-04-08T11:30:59.108Z,80.05
2018-04-08T11:32:09.220Z,79.95
2018-04-08T11:33:19.054Z,80.24
2018-04-08T11:34:28.889Z,80.08
2018-04-08T11:35:39.181Z,80.28
2018-04-08T11:36:48.993Z,80.47
2018-04-08T11:37:58.814Z,80.28
2018-04-08T11:39:08.696Z,80.28
2018-04-08T11:40:18.815Z,80.08
2018-04-08T11:41:28.651Z,79.93
2018-04-08T11:42:37.951Z,80.12
2018-04-08T11:43:47.774Z,79.93
2018-04-08T11:44:57.927Z,79.45
2018-04-08T11:46:08.101Z,79.54
2018-04-08T11:47:17.996Z,79.78
2018-04-08T11:48:27.949Z,79.68
2018-04-08T11:49:37.797Z,79.29
2018-04-08T11:50:47.621Z,79.39
2018-04-08T11:51:57.508Z,79.82
2018-04-08T11:53:07.339Z,79.68
2018-04-08T11:54:17.444Z,79.29
2018-04-08T11:55:27.024Z,79.24
2018-04-08T11:56:36.646Z,79.91
2018-04-08T11:57:46.748Z,79.62
2018-04-08T11:58:56.580Z,79.82
2018-04-08T12:00:06.687Z,80.01
2018-04-08T12:01:16.521Z,80.01
2018-04-08T12:02:26.657Z,79.82
2018-04-08T12:03:36.478Z,80.2
2018-04-08T12:04:46.347Z,80.3
2018-04-08T12:05:56.177Z,80.69
2018-04-08T12:07:06.008Z,80.3
2018-04-08T12:08:16.165Z,80.01
2018-04-08T12:09:26.274Z,80.4
2018-04-08T12:10:36.116Z,80.4
2018-04-08T12:11:46.227Z,80.3
2018-04-08T12:12:56.821Z,80.49
2018-04-08T12:14:06.984Z,80.4
2018-04-08T12:15:17.087Z,80.2
2018-04-08T12:16:27.203Z,80.4
2018-04-08T12:17:37.550Z,80.2
2018-04-08T12:18:47.661Z,80.49
2018-04-08T12:19:57.797Z,80.3
2018-04-08T12:21:08.354Z,80.3
2018-04-08T12:22:18.446Z,80.3
2018-04-08T12:23:28.770Z,80.3
2018-04-08T12:24:38.613Z,80.3
2018-04-08T12:25:48.785Z,80.2
2018-04-08T12:26:58.896Z,80.01
2018-04-08T12:28:08.490Z,80.2
2018-04-08T12:29:18.568Z,80.11
2018-04-08T12:30:28.135Z,80.11
2018-04-08T12:31:38.291Z,80.49
2018-04-08T12:32:48.138Z,80.49
2018-04-08T12:33:57.976Z,80.49
2018-04-08T12:35:07.554Z,80.49
2018-04-08T12:36:17.642Z,80.63
2018-04-08T12:37:27.744Z,80.49
2018-04-08T12:38:37.845Z,80.44
2018-04-08T12:39:47.683Z,80.54
2018-04-08T12:40:57.796Z,80.73
2018-04-08T12:42:07.903Z,80.54
2018-04-08T12:43:18.074Z,80.44
2018-04-08T12:44:28.223Z,80.87
2018-04-08T12:45:38.058Z,80.67
2018-04-08T12:46:47.620Z,80.38
2018-04-08T12:47:57.718Z,81.15
2018-04-08T12:49:07.532Z,80.96
2018-04-08T12:50:17.365Z,80.96
2018-04-08T12:51:27.199Z,81.05
2018-04-08T12:52:36.501Z,81.15
2018-04-08T12:53:46.316Z,81.05
2018-04-08T12:54:56.774Z,81.15
2018-04-08T12:56:06.603Z,80.96
2018-04-08T12:57:16.704Z,81.15
2018-04-08T12:58:26.944Z,80.92
2018-04-08T12:59:37.055Z,81.25
2018-04-08T13:00:47.180Z,81.15
2018-04-08T13:01:57.286Z,81.15
2018-04-08T13:03:07.132Z,80.87
2018-04-08T13:04:16.976Z,80.87
2018-04-08T13:05:26.550Z,81.4
2018-04-08T13:06:36.709Z,81.54
2018-04-08T13:07:46.860Z,81.05
2018-04-08T13:08:56.990Z,80.96
2018-04-08T13:10:06.831Z,81.25
2018-04-08T13:11:16.955Z,80.77
2018-04-08T13:12:26.783Z,80.96
2018-04-08T13:13:36.339Z,81.15
2018-04-08T13:14:46.186Z,80.96
2018-04-08T13:15:56.558Z,81.05
2018-04-08T13:17:06.690Z,81.54
2018-04-08T13:18:17.007Z,81.64
2018-04-08T13:19:27.117Z,81.45
2018-04-08T13:20:36.972Z,81.25
2018-04-08T13:21:47.070Z,81.35
2018-04-08T13:22:57.179Z,81.35
2018-04-08T13:24:06.798Z,81.2
2018-04-08T13:25:16.921Z,81.25
2018-04-08T13:26:27.055Z,81.35
2018-04-08T13:27:37.183Z,81.54
2018-04-08T13:28:47.290Z,81.48
2018-04-08T13:29:57.387Z,81.45
2018-04-08T13:31:06.938Z,81.35
2018-04-08T13:32:17.071Z,81.58
2018-04-08T13:33:27.172Z,81.58
2018-04-08T13:34:37.287Z,81.58
2018-04-08T13:35:47.374Z,81.15
2018-04-08T13:36:57.226Z,81.39
2018-04-08T13:38:07.334Z,81.39
2018-04-08T13:39:16.897Z,81.48
2018-04-08T13:40:26.463Z,81.39
2018-04-08T13:41:36.551Z,81.87
2018-04-08T13:42:46.644Z,81.77
2018-04-08T13:43:56.502Z,81.83
2018-04-08T13:45:06.635Z,81.73
2018-04-08T13:46:16.750Z,81.87
2018-04-08T13:47:26.865Z,81.58
2018-04-08T13:48:36.689Z,81.54
2018-04-08T13:49:47.033Z,81.64
2018-04-08T13:50:57.135Z,81.93
2018-04-08T13:52:06.713Z,81.45
2018-04-08T13:53:16.281Z,81.58
2018-04-08T13:54:26.437Z,81.45
2018-04-08T13:55:36.325Z,81.45
2018-04-08T13:56:46.156Z,81.64
2018-04-08T13:57:56.269Z,81.54
2018-04-08T13:59:05.928Z,81.54
2018-04-08T14:00:16.027Z,81.54
2018-04-08T14:01:26.245Z,81.93
2018-04-08T14:02:36.482Z,81.77
2018-04-08T14:03:46.312Z,81.83
2018-04-08T14:04:56.448Z,81.48
2018-04-08T14:06:06.290Z,81.68
2018-04-08T14:07:16.388Z,81.77
2018-04-08T14:08:26.503Z,81.58
2018-04-08T14:09:36.600Z,82.07
2018-04-08T14:10:46.459Z,81.87
2018-04-08T14:11:56.560Z,81.58
2018-04-08T14:13:06.670Z,81.64
2018-04-08T14:14:16.227Z,81.83
2018-04-08T14:15:26.760Z,81.93
2018-04-08T14:16:36.596Z,82.03
2018-04-08T14:17:46.695Z,82.12
2018-04-08T14:18:56.809Z,81.93
2018-04-08T14:20:06.852Z,81.83
2018-04-08T14:21:16.975Z,81.73
2018-04-08T14:22:26.856Z,82.22
2018-04-08T14:23:36.410Z,82.41
2018-04-08T14:24:46.274Z,82.22
2018-04-08T14:25:56.372Z,81.83
2018-04-08T14:27:06.475Z,82.41
2018-04-08T14:28:16.478Z,81.73
2018-04-08T14:29:26.625Z,82.41
2018-04-08T14:30:36.465Z,82.35
2018-04-08T14:31:46.331Z,82.32
2018-04-08T14:32:56.160Z,82.51
2018-04-08T14:34:06.327Z,82.41
2018-04-08T14:35:16.415Z,82.22
2018-04-08T14:36:26.551Z,82.22
2018-04-08T14:37:36.663Z,82.51
2018-04-08T14:38:47.012Z,82.22
2018-04-08T14:39:56.895Z,82.6
2018-04-08T14:41:07.003Z,82.7
2018-04-08T14:42:16.825Z,82.32
2018-04-08T14:43:26.671Z,82.22
2018-04-08T14:44:36.771Z,82.22
2018-04-08T14:45:46.077Z,82.7
2018-04-08T14:46:55.661Z,82.8
2018-04-08T14:48:05.517Z,82.32
2018-04-08T14:49:15.641Z,82.7
2018-04-08T14:50:25.213Z,82.8
2018-04-08T14:51:35.312Z,82.6
2018-04-08T14:52:45.414Z,83
2018-04-08T14:53:55.501Z,82.6
2018-04-08T14:55:06.129Z,82.6
2018-04-08T14:56:15.964Z,82.51
2018-04-08T14:57:25.940Z,82.37
2018-04-08T14:58:36.068Z,82.66
2018-04-08T14:59:46.242Z,82.86
2018-04-08T15:00:55.835Z,82.28
2018-04-08T15:02:05.403Z,82.28
2018-04-08T15:03:15.582Z,82.22
2018-04-08T15:04:25.431Z,82.6
2018-04-08T15:05:35.675Z,82.22
2018-04-08T15:06:45.518Z,82.57
2018-04-08T15:07:55.519Z,82.28
2018-04-08T15:09:05.399Z,82.86
2018-04-08T15:10:15.250Z,82.37
2018-04-08T15:11:25.381Z,82.86
2018-04-08T15:12:35.537Z,82.57
2018-04-08T15:13:45.635Z,82.47
2018-04-08T15:14:55.833Z,82.86
2018-04-08T15:16:05.934Z,83.05
2018-04-08T15:17:16.043Z,82.76
2018-04-08T15:18:25.888Z,82.66
2018-04-08T15:19:35.456Z,82.37
2018-04-08T15:20:45.048Z,82.95
2018-04-08T15:21:54.877Z,82.57
2018-04-08T15:23:04.700Z,82.76
2018-04-08T15:24:13.990Z,82.66
2018-04-08T15:25:24.126Z,82.37
2018-04-08T15:26:34.283Z,82.57
2018-04-08T15:27:44.377Z,82.95
2018-04-08T15:28:54.490Z,82.57
2018-04-08T15:30:04.601Z,82.37
2018-04-08T15:31:14.716Z,82.57
2018-04-08T15:32:24.620Z,82.95
2018-04-08T15:33:34.462Z,83.3
2018-04-08T15:34:44.292Z,83.2
2018-04-08T15:35:54.365Z,83.11
2018-04-08T15:37:04.486Z,83.11
2018-04-08T15:38:14.975Z,83.2
2018-04-08T15:39:25.105Z,83.11